sensor_id;sensor_type;location;lat;lon;timestamp;P1;durP1;ratioP1;P2;durP2;ratioP2
8478;SDS011;4276;49.354;6.804;2024-01-16T00:01:04;6.87;;;5.27;;
8478;SDS011;4276;49.354;6.804;2024-01-16T00:03:31;6.70;;;5.00;;
8478;SDS011;4276;49.354;6.804;2024-01-16T00:05:58;5.65;;;4.90;;
8478;SDS011;4276;49.354;6.804;2024-01-16T00:08:25;7.00;;;4.90;;
8478;SDS011;4276;49.354;6.804;2024-01-16T00:10:51;7.17;;;5.33;;
8478;SDS011;4276;49.354;6.804;2024-01-16T00:13:18;6.17;;;5.10;;
8478;SDS011;4276;49.354;6.804;2024-01-16T00:15:45;5.90;;;4.70;;
8478;SDS011;4276;49.354;6.804;2024-01-16T00:18:11;5.63;;;4.93;;
8478;SDS011;4276;49.354;6.804;2024-01-16T00:20:38;4.73;;;4.33;;
8478;SDS011;4276;49.354;6.804;2024-01-16T00:23:04;5.37;;;4.93;;
8478;SDS011;4276;49.354;6.804;2024-01-16T00:25:31;4.97;;;4.47;;
8478;SDS011;4276;49.354;6.804;2024-01-16T00:27:57;6.13;;;4.93;;
8478;SDS011;4276;49.354;6.804;2024-01-16T00:30:24;5.13;;;4.63;;
8478;SDS011;4276;49.354;6.804;2024-01-16T00:32:50;5.90;;;4.80;;
8478;SDS011;4276;49.354;6.804;2024-01-16T00:35:18;6.43;;;5.03;;
8478;SDS011;4276;49.354;6.804;2024-01-16T00:37:45;5.20;;;4.70;;
8478;SDS011;4276;49.354;6.804;2024-01-16T00:40:14;5.23;;;4.60;;
8478;SDS011;4276;49.354;6.804;2024-01-16T00:42:40;6.30;;;5.20;;
8478;SDS011;4276;49.354;6.804;2024-01-16T00:45:07;6.40;;;4.93;;
8478;SDS011;4276;49.354;6.804;2024-01-16T00:47:34;6.20;;;4.77;;
8478;SDS011;4276;49.354;6.804;2024-01-16T00:50:00;6.57;;;5.60;;
8478;SDS011;4276;49.354;6.804;2024-01-16T00:52:28;6.47;;;4.67;;
8478;SDS011;4276;49.354;6.804;2024-01-16T00:54:55;5.20;;;4.70;;
8478;SDS011;4276;49.354;6.804;2024-01-16T00:57:22;5.57;;;4.80;;
8478;SDS011;4276;49.354;6.804;2024-01-16T00:59:48;6.30;;;4.77;;
8478;SDS011;4276;49.354;6.804;2024-01-16T01:02:15;5.60;;;5.20;;
8478;SDS011;4276;49.354;6.804;2024-01-16T01:04:42;7.30;;;5.30;;
8478;SDS011;4276;49.354;6.804;2024-01-16T01:07:12;6.87;;;5.70;;
8478;SDS011;4276;49.354;6.804;2024-01-16T01:09:39;6.43;;;4.90;;
8478;SDS011;4276;49.354;6.804;2024-01-16T01:12:06;5.10;;;4.67;;
8478;SDS011;4276;49.354;6.804;2024-01-16T01:14:32;5.43;;;5.00;;
8478;SDS011;4276;49.354;6.804;2024-01-16T01:16:59;8.90;;;5.37;;
8478;SDS011;4276;49.354;6.804;2024-01-16T01:19:26;7.73;;;5.53;;
8478;SDS011;4276;49.354;6.804;2024-01-16T01:21:52;8.50;;;5.13;;
8478;SDS011;4276;49.354;6.804;2024-01-16T01:24:19;6.00;;;5.10;;
8478;SDS011;4276;49.354;6.804;2024-01-16T01:26:45;6.37;;;5.07;;
8478;SDS011;4276;49.354;6.804;2024-01-16T01:29:12;6.90;;;5.30;;
8478;SDS011;4276;49.354;6.804;2024-01-16T01:31:38;7.80;;;5.30;;
8478;SDS011;4276;49.354;6.804;2024-01-16T01:34:05;5.40;;;4.83;;
8478;SDS011;4276;49.354;6.804;2024-01-16T01:36:32;6.17;;;4.77;;
8478;SDS011;4276;49.354;6.804;2024-01-16T01:38:58;5.97;;;5.13;;
8478;SDS011;4276;49.354;6.804;2024-01-16T01:41:25;7.33;;;5.40;;
8478;SDS011;4276;49.354;6.804;2024-01-16T01:43:51;5.90;;;5.33;;
8478;SDS011;4276;49.354;6.804;2024-01-16T01:46:18;5.77;;;5.27;;
8478;SDS011;4276;49.354;6.804;2024-01-16T01:48:46;7.53;;;4.93;;
8478;SDS011;4276;49.354;6.804;2024-01-16T01:51:17;7.00;;;5.40;;
8478;SDS011;4276;49.354;6.804;2024-01-16T01:53:45;5.77;;;5.20;;
8478;SDS011;4276;49.354;6.804;2024-01-16T01:56:14;6.40;;;5.20;;
8478;SDS011;4276;49.354;6.804;2024-01-16T01:58:43;5.73;;;5.13;;
8478;SDS011;4276;49.354;6.804;2024-01-16T02:01:11;6.47;;;5.23;;
8478;SDS011;4276;49.354;6.804;2024-01-16T02:03:39;7.67;;;5.43;;
8478;SDS011;4276;49.354;6.804;2024-01-16T02:06:09;6.60;;;5.90;;
8478;SDS011;4276;49.354;6.804;2024-01-16T02:08:36;6.10;;;5.50;;
8478;SDS011;4276;49.354;6.804;2024-01-16T02:11:03;7.90;;;5.87;;
8478;SDS011;4276;49.354;6.804;2024-01-16T02:13:30;7.90;;;5.47;;
8478;SDS011;4276;49.354;6.804;2024-01-16T02:15:56;9.13;;;5.73;;
8478;SDS011;4276;49.354;6.804;2024-01-16T02:18:23;6.80;;;5.20;;
8478;SDS011;4276;49.354;6.804;2024-01-16T02:20:50;6.23;;;5.37;;
8478;SDS011;4276;49.354;6.804;2024-01-16T02:25:47;6.97;;;5.60;;
8478;SDS011;4276;49.354;6.804;2024-01-16T02:28:14;7.13;;;5.97;;
8478;SDS011;4276;49.354;6.804;2024-01-16T02:30:41;6.83;;;6.23;;
8478;SDS011;4276;49.354;6.804;2024-01-16T02:33:08;7.77;;;7.00;;
8478;SDS011;4276;49.354;6.804;2024-01-16T02:35:35;7.13;;;6.03;;
8478;SDS011;4276;49.354;6.804;2024-01-16T02:38:02;8.17;;;6.63;;
8478;SDS011;4276;49.354;6.804;2024-01-16T02:40:28;6.17;;;5.57;;
8478;SDS011;4276;49.354;6.804;2024-01-16T02:42:55;6.60;;;5.93;;
8478;SDS011;4276;49.354;6.804;2024-01-16T02:45:21;6.37;;;5.50;;
8478;SDS011;4276;49.354;6.804;2024-01-16T02:47:48;6.00;;;5.40;;
8478;SDS011;4276;49.354;6.804;2024-01-16T02:50:15;5.43;;;4.77;;
8478;SDS011;4276;49.354;6.804;2024-01-16T02:52:41;6.53;;;5.03;;
8478;SDS011;4276;49.354;6.804;2024-01-16T02:55:08;10.23;;;5.43;;
8478;SDS011;4276;49.354;6.804;2024-01-16T02:57:35;8.47;;;5.47;;
8478;SDS011;4276;49.354;6.804;2024-01-16T03:00:01;6.90;;;5.50;;
8478;SDS011;4276;49.354;6.804;2024-01-16T03:02:28;5.57;;;5.00;;
8478;SDS011;4276;49.354;6.804;2024-01-16T03:04:55;5.23;;;4.67;;
8478;SDS011;4276;49.354;6.804;2024-01-16T03:07:21;6.53;;;5.73;;
8478;SDS011;4276;49.354;6.804;2024-01-16T03:09:48;6.57;;;5.40;;
8478;SDS011;4276;49.354;6.804;2024-01-16T03:12:14;6.23;;;5.43;;
8478;SDS011;4276;49.354;6.804;2024-01-16T03:14:40;9.80;;;5.93;;
8478;SDS011;4276;49.354;6.804;2024-01-16T03:17:07;5.27;;;4.60;;
8478;SDS011;4276;49.354;6.804;2024-01-16T03:19:34;5.40;;;4.90;;
8478;SDS011;4276;49.354;6.804;2024-01-16T03:22:00;7.07;;;5.37;;
8478;SDS011;4276;49.354;6.804;2024-01-16T03:24:27;6.80;;;4.87;;
8478;SDS011;4276;49.354;6.804;2024-01-16T03:26:53;6.90;;;5.30;;
8478;SDS011;4276;49.354;6.804;2024-01-16T03:29:20;5.90;;;4.90;;
8478;SDS011;4276;49.354;6.804;2024-01-16T03:31:47;5.93;;;4.93;;
8478;SDS011;4276;49.354;6.804;2024-01-16T03:34:14;6.23;;;5.63;;
8478;SDS011;4276;49.354;6.804;2024-01-16T03:36:41;5.00;;;4.40;;
8478;SDS011;4276;49.354;6.804;2024-01-16T03:39:07;7.40;;;5.30;;
8478;SDS011;4276;49.354;6.804;2024-01-16T03:41:35;5.27;;;4.70;;
8478;SDS011;4276;49.354;6.804;2024-01-16T03:44:01;6.67;;;5.33;;
8478;SDS011;4276;49.354;6.804;2024-01-16T03:46:28;5.90;;;5.27;;
8478;SDS011;4276;49.354;6.804;2024-01-16T03:48:55;6.37;;;5.37;;
8478;SDS011;4276;49.354;6.804;2024-01-16T03:51:23;6.27;;;5.67;;
8478;SDS011;4276;49.354;6.804;2024-01-16T03:53:49;7.87;;;5.93;;
8478;SDS011;4276;49.354;6.804;2024-01-16T03:56:16;8.70;;;7.10;;
8478;SDS011;4276;49.354;6.804;2024-01-16T03:58:43;7.90;;;6.60;;
8478;SDS011;4276;49.354;6.804;2024-01-16T04:01:09;9.23;;;7.50;;
8478;SDS011;4276;49.354;6.804;2024-01-16T04:03:36;7.77;;;6.93;;
8478;SDS011;4276;49.354;6.804;2024-01-16T04:06:13;7.23;;;6.53;;
8478;SDS011;4276;49.354;6.804;2024-01-16T04:08:43;8.00;;;6.87;;
8478;SDS011;4276;49.354;6.804;2024-01-16T04:11:11;7.67;;;6.67;;
8478;SDS011;4276;49.354;6.804;2024-01-16T04:13:38;8.93;;;6.27;;
8478;SDS011;4276;49.354;6.804;2024-01-16T04:16:05;7.13;;;5.40;;
8478;SDS011;4276;49.354;6.804;2024-01-16T04:18:35;6.47;;;5.43;;
8478;SDS011;4276;49.354;6.804;2024-01-16T04:21:03;6.47;;;5.73;;
8478;SDS011;4276;49.354;6.804;2024-01-16T04:23:30;7.17;;;5.40;;
8478;SDS011;4276;49.354;6.804;2024-01-16T04:25:57;5.97;;;5.20;;
8478;SDS011;4276;49.354;6.804;2024-01-16T04:28:23;5.87;;;5.23;;
8478;SDS011;4276;49.354;6.804;2024-01-16T04:30:50;7.97;;;5.33;;
8478;SDS011;4276;49.354;6.804;2024-01-16T04:33:17;8.30;;;5.70;;
8478;SDS011;4276;49.354;6.804;2024-01-16T04:35:44;6.53;;;5.80;;
8478;SDS011;4276;49.354;6.804;2024-01-16T04:38:11;6.77;;;5.40;;
8478;SDS011;4276;49.354;6.804;2024-01-16T04:40:37;5.97;;;4.97;;
8478;SDS011;4276;49.354;6.804;2024-01-16T04:43:04;8.53;;;5.23;;
8478;SDS011;4276;49.354;6.804;2024-01-16T04:45:31;6.87;;;5.77;;
8478;SDS011;4276;49.354;6.804;2024-01-16T04:47:58;6.23;;;5.00;;
8478;SDS011;4276;49.354;6.804;2024-01-16T04:50:24;6.03;;;5.23;;
8478;SDS011;4276;49.354;6.804;2024-01-16T04:52:58;7.73;;;5.17;;
8478;SDS011;4276;49.354;6.804;2024-01-16T04:55:28;7.23;;;5.40;;
8478;SDS011;4276;49.354;6.804;2024-01-16T04:57:55;6.03;;;4.83;;
8478;SDS011;4276;49.354;6.804;2024-01-16T05:00:22;5.80;;;5.30;;
8478;SDS011;4276;49.354;6.804;2024-01-16T05:02:49;9.63;;;5.13;;
8478;SDS011;4276;49.354;6.804;2024-01-16T05:05:16;5.73;;;5.10;;
8478;SDS011;4276;49.354;6.804;2024-01-16T05:07:42;6.43;;;4.90;;
8478;SDS011;4276;49.354;6.804;2024-01-16T05:10:09;6.00;;;5.37;;
8478;SDS011;4276;49.354;6.804;2024-01-16T05:12:39;6.50;;;4.73;;
8478;SDS011;4276;49.354;6.804;2024-01-16T05:15:06;5.97;;;5.10;;
8478;SDS011;4276;49.354;6.804;2024-01-16T05:17:33;7.33;;;4.93;;
8478;SDS011;4276;49.354;6.804;2024-01-16T05:20:02;6.30;;;4.97;;
8478;SDS011;4276;49.354;6.804;2024-01-16T05:22:32;6.13;;;5.53;;
8478;SDS011;4276;49.354;6.804;2024-01-16T05:24:59;8.80;;;5.20;;
8478;SDS011;4276;49.354;6.804;2024-01-16T05:27:25;7.20;;;6.30;;
8478;SDS011;4276;49.354;6.804;2024-01-16T05:29:52;6.93;;;6.10;;
8478;SDS011;4276;49.354;6.804;2024-01-16T05:32:19;6.97;;;6.37;;
8478;SDS011;4276;49.354;6.804;2024-01-16T05:34:45;6.27;;;5.37;;
8478;SDS011;4276;49.354;6.804;2024-01-16T05:37:12;9.30;;;6.80;;
8478;SDS011;4276;49.354;6.804;2024-01-16T05:39:38;6.00;;;5.40;;
8478;SDS011;4276;49.354;6.804;2024-01-16T05:42:05;5.43;;;4.93;;
8478;SDS011;4276;49.354;6.804;2024-01-16T05:44:32;7.10;;;5.60;;
8478;SDS011;4276;49.354;6.804;2024-01-16T05:46:59;5.93;;;5.33;;
8478;SDS011;4276;49.354;6.804;2024-01-16T05:49:25;6.70;;;5.97;;
8478;SDS011;4276;49.354;6.804;2024-01-16T05:51:52;8.67;;;7.13;;
8478;SDS011;4276;49.354;6.804;2024-01-16T05:54:19;7.50;;;6.80;;
8478;SDS011;4276;49.354;6.804;2024-01-16T05:56:45;7.30;;;6.60;;
8478;SDS011;4276;49.354;6.804;2024-01-16T05:59:12;6.97;;;6.27;;
8478;SDS011;4276;49.354;6.804;2024-01-16T06:01:39;6.60;;;5.97;;
8478;SDS011;4276;49.354;6.804;2024-01-16T06:04:05;6.27;;;5.67;;
8478;SDS011;4276;49.354;6.804;2024-01-16T06:06:32;6.20;;;5.47;;
8478;SDS011;4276;49.354;6.804;2024-01-16T06:08:59;7.53;;;5.63;;
8478;SDS011;4276;49.354;6.804;2024-01-16T06:11:34;5.47;;;4.93;;
8478;SDS011;4276;49.354;6.804;2024-01-16T06:14:04;8.10;;;5.37;;
8478;SDS011;4276;49.354;6.804;2024-01-16T06:16:31;8.80;;;5.80;;
8478;SDS011;4276;49.354;6.804;2024-01-16T06:18:57;6.77;;;6.07;;
8478;SDS011;4276;49.354;6.804;2024-01-16T06:21:24;6.47;;;5.67;;
8478;SDS011;4276;49.354;6.804;2024-01-16T06:23:50;7.63;;;5.53;;
8478;SDS011;4276;49.354;6.804;2024-01-16T06:26:17;6.53;;;5.40;;
8478;SDS011;4276;49.354;6.804;2024-01-16T06:28:44;5.57;;;5.10;;
8478;SDS011;4276;49.354;6.804;2024-01-16T06:31:11;5.40;;;4.90;;
8478;SDS011;4276;49.354;6.804;2024-01-16T06:33:38;7.13;;;4.57;;
8478;SDS011;4276;49.354;6.804;2024-01-16T06:36:05;6.33;;;5.73;;
8478;SDS011;4276;49.354;6.804;2024-01-16T06:38:32;8.43;;;5.37;;
8478;SDS011;4276;49.354;6.804;2024-01-16T06:40:58;7.03;;;5.90;;
8478;SDS011;4276;49.354;6.804;2024-01-16T06:43:25;10.37;;;5.90;;
8478;SDS011;4276;49.354;6.804;2024-01-16T06:45:52;6.57;;;5.33;;
8478;SDS011;4276;49.354;6.804;2024-01-16T06:48:19;6.93;;;6.23;;
8478;SDS011;4276;49.354;6.804;2024-01-16T06:50:46;7.93;;;7.17;;
8478;SDS011;4276;49.354;6.804;2024-01-16T06:53:12;7.30;;;6.60;;
8478;SDS011;4276;49.354;6.804;2024-01-16T06:55:42;12.60;;;11.30;;
8478;SDS011;4276;49.354;6.804;2024-01-16T06:58:08;20.73;;;18.80;;
8478;SDS011;4276;49.354;6.804;2024-01-16T07:00:36;18.33;;;16.83;;
8478;SDS011;4276;49.354;6.804;2024-01-16T07:03:03;17.37;;;15.77;;
8478;SDS011;4276;49.354;6.804;2024-01-16T07:05:29;10.87;;;9.87;;
8478;SDS011;4276;49.354;6.804;2024-01-16T07:07:56;10.13;;;9.20;;
8478;SDS011;4276;49.354;6.804;2024-01-16T07:10:24;9.40;;;8.53;;
8478;SDS011;4276;49.354;6.804;2024-01-16T07:12:52;7.20;;;6.50;;
8478;SDS011;4276;49.354;6.804;2024-01-16T07:15:18;6.83;;;6.23;;
8478;SDS011;4276;49.354;6.804;2024-01-16T07:17:45;7.50;;;6.80;;
8478;SDS011;4276;49.354;6.804;2024-01-16T07:20:12;7.63;;;6.53;;
8478;SDS011;4276;49.354;6.804;2024-01-16T07:22:38;6.73;;;6.10;;
8478;SDS011;4276;49.354;6.804;2024-01-16T07:25:08;6.43;;;5.70;;
8478;SDS011;4276;49.354;6.804;2024-01-16T07:27:35;6.57;;;5.60;;
8478;SDS011;4276;49.354;6.804;2024-01-16T07:30:03;6.13;;;5.53;;
8478;SDS011;4276;49.354;6.804;2024-01-16T07:32:30;7.57;;;6.87;;
8478;SDS011;4276;49.354;6.804;2024-01-16T07:34:58;5.97;;;5.47;;
8478;SDS011;4276;49.354;6.804;2024-01-16T07:37:24;6.97;;;6.27;;
8478;SDS011;4276;49.354;6.804;2024-01-16T07:39:51;7.13;;;6.43;;
8478;SDS011;4276;49.354;6.804;2024-01-16T07:42:18;7.10;;;6.40;;
8478;SDS011;4276;49.354;6.804;2024-01-16T07:44:44;8.37;;;6.37;;
8478;SDS011;4276;49.354;6.804;2024-01-16T07:47:11;6.73;;;6.13;;
8478;SDS011;4276;49.354;6.804;2024-01-16T07:49:38;7.20;;;5.53;;
8478;SDS011;4276;49.354;6.804;2024-01-16T07:52:05;6.70;;;6.10;;
8478;SDS011;4276;49.354;6.804;2024-01-16T07:54:31;7.90;;;6.47;;
8478;SDS011;4276;49.354;6.804;2024-01-16T07:56:58;6.97;;;6.27;;
8478;SDS011;4276;49.354;6.804;2024-01-16T07:59:26;6.53;;;5.93;;
8478;SDS011;4276;49.354;6.804;2024-01-16T08:01:52;7.07;;;5.70;;
8478;SDS011;4276;49.354;6.804;2024-01-16T08:04:19;6.47;;;5.73;;
8478;SDS011;4276;49.354;6.804;2024-01-16T08:06:46;5.93;;;5.33;;
8478;SDS011;4276;49.354;6.804;2024-01-16T08:09:13;8.60;;;6.07;;
8478;SDS011;4276;49.354;6.804;2024-01-16T08:11:40;6.23;;;5.63;;
8478;SDS011;4276;49.354;6.804;2024-01-16T08:14:07;7.57;;;6.67;;
8478;SDS011;4276;49.354;6.804;2024-01-16T08:16:34;9.03;;;8.13;;
8478;SDS011;4276;49.354;6.804;2024-01-16T08:19:01;10.43;;;9.43;;
8478;SDS011;4276;49.354;6.804;2024-01-16T08:21:27;9.93;;;9.03;;
8478;SDS011;4276;49.354;6.804;2024-01-16T08:23:54;9.43;;;7.60;;
8478;SDS011;4276;49.354;6.804;2024-01-16T08:26:20;6.83;;;6.13;;
8478;SDS011;4276;49.354;6.804;2024-01-16T08:28:47;6.77;;;5.83;;
8478;SDS011;4276;49.354;6.804;2024-01-16T08:31:16;7.37;;;5.73;;
8478;SDS011;4276;49.354;6.804;2024-01-16T08:33:43;10.80;;;7.53;;
8478;SDS011;4276;49.354;6.804;2024-01-16T08:36:14;9.97;;;9.00;;
8478;SDS011;4276;49.354;6.804;2024-01-16T08:38:41;12.10;;;10.10;;
8478;SDS011;4276;49.354;6.804;2024-01-16T08:41:08;11.23;;;9.10;;
8478;SDS011;4276;49.354;6.804;2024-01-16T08:43:35;10.90;;;8.53;;
8478;SDS011;4276;49.354;6.804;2024-01-16T08:46:02;11.50;;;9.20;;
8478;SDS011;4276;49.354;6.804;2024-01-16T08:48:29;10.20;;;8.03;;
8478;SDS011;4276;49.354;6.804;2024-01-16T08:50:56;10.37;;;9.23;;
8478;SDS011;4276;49.354;6.804;2024-01-16T08:53:23;11.57;;;10.47;;
8478;SDS011;4276;49.354;6.804;2024-01-16T08:55:50;11.50;;;10.30;;
8478;SDS011;4276;49.354;6.804;2024-01-16T08:58:16;10.43;;;9.33;;
8478;SDS011;4276;49.354;6.804;2024-01-16T09:00:43;9.77;;;8.77;;
8478;SDS011;4276;49.354;6.804;2024-01-16T09:03:11;9.57;;;8.17;;
8478;SDS011;4276;49.354;6.804;2024-01-16T09:05:38;11.87;;;9.40;;
8478;SDS011;4276;49.354;6.804;2024-01-16T09:08:05;11.53;;;9.00;;
8478;SDS011;4276;49.354;6.804;2024-01-16T09:10:36;12.30;;;10.80;;
8478;SDS011;4276;49.354;6.804;2024-01-16T09:13:02;19.03;;;14.30;;
8478;SDS011;4276;49.354;6.804;2024-01-16T09:15:29;15.40;;;11.77;;
8478;SDS011;4276;49.354;6.804;2024-01-16T09:17:55;12.77;;;10.70;;
8478;SDS011;4276;49.354;6.804;2024-01-16T09:20:22;13.47;;;9.97;;
8478;SDS011;4276;49.354;6.804;2024-01-16T09:22:50;13.20;;;10.23;;
8478;SDS011;4276;49.354;6.804;2024-01-16T09:25:16;13.83;;;12.33;;
8478;SDS011;4276;49.354;6.804;2024-01-16T09:27:43;16.80;;;13.07;;
8478;SDS011;4276;49.354;6.804;2024-01-16T09:30:10;22.50;;;17.20;;
8478;SDS011;4276;49.354;6.804;2024-01-16T09:32:39;20.67;;;18.13;;
8478;SDS011;4276;49.354;6.804;2024-01-16T09:35:05;25.10;;;19.03;;
8478;SDS011;4276;49.354;6.804;2024-01-16T09:37:35;23.00;;;17.60;;
8478;SDS011;4276;49.354;6.804;2024-01-16T09:40:02;19.10;;;17.00;;
8478;SDS011;4276;49.354;6.804;2024-01-16T09:42:31;17.70;;;15.80;;
8478;SDS011;4276;49.354;6.804;2024-01-16T09:44:58;16.67;;;14.03;;
8478;SDS011;4276;49.354;6.804;2024-01-16T09:47:26;16.77;;;13.60;;
8478;SDS011;4276;49.354;6.804;2024-01-16T09:49:53;14.23;;;12.73;;
8478;SDS011;4276;49.354;6.804;2024-01-16T09:52:20;12.43;;;11.13;;
8478;SDS011;4276;49.354;6.804;2024-01-16T09:54:47;16.73;;;10.30;;
8478;SDS011;4276;49.354;6.804;2024-01-16T09:57:14;12.20;;;9.83;;
8478;SDS011;4276;49.354;6.804;2024-01-16T09:59:41;11.50;;;10.30;;
8478;SDS011;4276;49.354;6.804;2024-01-16T10:02:09;12.17;;;10.47;;
8478;SDS011;4276;49.354;6.804;2024-01-16T10:04:36;10.37;;;8.67;;
8478;SDS011;4276;49.354;6.804;2024-01-16T10:07:03;9.90;;;8.90;;
8478;SDS011;4276;49.354;6.804;2024-01-16T10:09:30;9.40;;;8.20;;
8478;SDS011;4276;49.354;6.804;2024-01-16T10:11:57;11.57;;;8.80;;
8478;SDS011;4276;49.354;6.804;2024-01-16T10:14:24;14.27;;;9.00;;
8478;SDS011;4276;49.354;6.804;2024-01-16T10:19:31;11.63;;;8.67;;
8478;SDS011;4276;49.354;6.804;2024-01-16T10:22:13;11.93;;;9.07;;
8478;SDS011;4276;49.354;6.804;2024-01-16T10:25:00;12.83;;;9.47;;
8478;SDS011;4276;49.354;6.804;2024-01-16T10:27:29;15.33;;;10.70;;
8478;SDS011;4276;49.354;6.804;2024-01-16T10:29:57;14.83;;;10.27;;
8478;SDS011;4276;49.354;6.804;2024-01-16T10:32:34;15.57;;;11.00;;
8478;SDS011;4276;49.354;6.804;2024-01-16T10:37:51;15.47;;;10.07;;
8478;SDS011;4276;49.354;6.804;2024-01-16T10:40:22;11.63;;;9.60;;
8478;SDS011;4276;49.354;6.804;2024-01-16T10:43:02;13.67;;;9.53;;
8478;SDS011;4276;49.354;6.804;2024-01-16T10:45:30;11.77;;;8.63;;
8478;SDS011;4276;49.354;6.804;2024-01-16T10:48:00;10.53;;;7.27;;
8478;SDS011;4276;49.354;6.804;2024-01-16T10:50:30;8.77;;;7.60;;
8478;SDS011;4276;49.354;6.804;2024-01-16T10:52:59;11.33;;;7.30;;
8478;SDS011;4276;49.354;6.804;2024-01-16T10:55:27;10.23;;;6.97;;
8478;SDS011;4276;49.354;6.804;2024-01-16T10:57:55;7.07;;;6.13;;
8478;SDS011;4276;49.354;6.804;2024-01-16T11:00:22;7.77;;;6.80;;
8478;SDS011;4276;49.354;6.804;2024-01-16T11:05:33;10.40;;;7.33;;
8478;SDS011;4276;49.354;6.804;2024-01-16T11:08:00;7.77;;;6.87;;
8478;SDS011;4276;49.354;6.804;2024-01-16T11:10:33;10.57;;;8.23;;
8478;SDS011;4276;49.354;6.804;2024-01-16T11:13:01;12.63;;;9.10;;
8478;SDS011;4276;49.354;6.804;2024-01-16T11:15:28;11.40;;;8.70;;
8478;SDS011;4276;49.354;6.804;2024-01-16T11:17:55;13.27;;;8.83;;
8478;SDS011;4276;49.354;6.804;2024-01-16T11:20:25;13.53;;;9.47;;
8478;SDS011;4276;49.354;6.804;2024-01-16T11:23:13;12.20;;;9.17;;
8478;SDS011;4276;49.354;6.804;2024-01-16T11:25:40;11.97;;;8.60;;
8478;SDS011;4276;49.354;6.804;2024-01-16T11:28:10;13.27;;;9.97;;
8478;SDS011;4276;49.354;6.804;2024-01-16T11:30:38;9.73;;;8.33;;
8478;SDS011;4276;49.354;6.804;2024-01-16T11:33:05;13.10;;;8.33;;
8478;SDS011;4276;49.354;6.804;2024-01-16T11:35:33;14.37;;;8.80;;
8478;SDS011;4276;49.354;6.804;2024-01-16T11:38:06;12.43;;;9.50;;
8478;SDS011;4276;49.354;6.804;2024-01-16T11:40:36;14.50;;;10.47;;
8478;SDS011;4276;49.354;6.804;2024-01-16T11:43:34;13.93;;;9.33;;
8478;SDS011;4276;49.354;6.804;2024-01-16T11:46:01;10.97;;;8.37;;
8478;SDS011;4276;49.354;6.804;2024-01-16T11:48:31;8.17;;;6.93;;
8478;SDS011;4276;49.354;6.804;2024-01-16T11:50:58;9.30;;;7.63;;
8478;SDS011;4276;49.354;6.804;2024-01-16T12:01:52;11.80;;;7.90;;
8478;SDS011;4276;49.354;6.804;2024-01-16T12:04:19;8.37;;;7.47;;
8478;SDS011;4276;49.354;6.804;2024-01-16T12:06:56;10.17;;;7.90;;
8478;SDS011;4276;49.354;6.804;2024-01-16T12:09:27;8.80;;;6.83;;
8478;SDS011;4276;49.354;6.804;2024-01-16T12:11:58;7.93;;;6.97;;
8478;SDS011;4276;49.354;6.804;2024-01-16T12:14:27;7.50;;;6.83;;
8478;SDS011;4276;49.354;6.804;2024-01-16T12:17:10;8.40;;;7.50;;
8478;SDS011;4276;49.354;6.804;2024-01-16T12:19:37;7.87;;;6.73;;
8478;SDS011;4276;49.354;6.804;2024-01-16T12:22:08;8.57;;;7.10;;
8478;SDS011;4276;49.354;6.804;2024-01-16T12:24:36;7.47;;;6.57;;
8478;SDS011;4276;49.354;6.804;2024-01-16T12:27:03;7.60;;;6.57;;
8478;SDS011;4276;49.354;6.804;2024-01-16T12:29:31;6.93;;;6.13;;
8478;SDS011;4276;49.354;6.804;2024-01-16T12:32:32;7.57;;;6.82;;
8478;SDS011;4276;49.354;6.804;2024-01-16T12:34:51;8.83;;;6.40;;
8478;SDS011;4276;49.354;6.804;2024-01-16T12:37:18;11.10;;;7.35;;
8478;SDS011;4276;49.354;6.804;2024-01-16T12:39:46;8.03;;;6.50;;
8478;SDS011;4276;49.354;6.804;2024-01-16T12:42:12;11.33;;;6.53;;
8478;SDS011;4276;49.354;6.804;2024-01-16T12:44:39;6.77;;;6.10;;
8478;SDS011;4276;49.354;6.804;2024-01-16T12:47:06;8.53;;;6.60;;
8478;SDS011;4276;49.354;6.804;2024-01-16T12:49:39;8.47;;;7.23;;
8478;SDS011;4276;49.354;6.804;2024-01-16T12:52:17;9.27;;;8.20;;
8478;SDS011;4276;49.354;6.804;2024-01-16T12:54:45;11.63;;;9.50;;
8478;SDS011;4276;49.354;6.804;2024-01-16T12:57:16;8.87;;;7.97;;
8478;SDS011;4276;49.354;6.804;2024-01-16T12:59:43;8.13;;;6.53;;
8478;SDS011;4276;49.354;6.804;2024-01-16T13:02:10;7.77;;;6.87;;
8478;SDS011;4276;49.354;6.804;2024-01-16T13:04:37;7.68;;;6.55;;
8478;SDS011;4276;49.354;6.804;2024-01-16T13:07:05;10.70;;;6.85;;
8478;SDS011;4276;49.354;6.804;2024-01-16T13:09:32;7.13;;;5.85;;
8478;SDS011;4276;49.354;6.804;2024-01-16T13:11:59;6.60;;;6.00;;
8478;SDS011;4276;49.354;6.804;2024-01-16T13:14:26;7.72;;;5.68;;
8478;SDS011;4276;49.354;6.804;2024-01-16T13:16:53;6.20;;;5.60;;
8478;SDS011;4276;49.354;6.804;2024-01-16T13:19:23;6.07;;;5.47;;
8478;SDS011;4276;49.354;6.804;2024-01-16T13:21:50;5.93;;;5.32;;
8478;SDS011;4276;49.354;6.804;2024-01-16T13:24:17;5.85;;;5.25;;
8478;SDS011;4276;49.354;6.804;2024-01-16T13:26:48;5.75;;;5.25;;
8478;SDS011;4276;49.354;6.804;2024-01-16T13:29:15;5.97;;;5.07;;
8478;SDS011;4276;49.354;6.804;2024-01-16T13:31:42;5.45;;;4.90;;
8478;SDS011;4276;49.354;6.804;2024-01-16T13:34:10;7.93;;;6.03;;
8478;SDS011;4276;49.354;6.804;2024-01-16T13:36:36;6.20;;;5.43;;
8478;SDS011;4276;49.354;6.804;2024-01-16T13:39:06;6.78;;;5.07;;
8478;SDS011;4276;49.354;6.804;2024-01-16T13:41:39;7.63;;;5.70;;
8478;SDS011;4276;49.354;6.804;2024-01-16T13:44:06;6.80;;;5.40;;
8478;SDS011;4276;49.354;6.804;2024-01-16T13:46:32;6.97;;;5.40;;
8478;SDS011;4276;49.354;6.804;2024-01-16T13:49:19;6.35;;;5.75;;
8478;SDS011;4276;49.354;6.804;2024-01-16T13:51:46;5.60;;;5.05;;
8478;SDS011;4276;49.354;6.804;2024-01-16T13:54:13;7.13;;;5.63;;
8478;SDS011;4276;49.354;6.804;2024-01-16T13:56:39;6.40;;;5.10;;
8478;SDS011;4276;49.354;6.804;2024-01-16T13:59:26;5.60;;;5.03;;
8478;SDS011;4276;49.354;6.804;2024-01-16T14:01:52;6.60;;;5.18;;
8478;SDS011;4276;49.354;6.804;2024-01-16T14:04:19;5.22;;;4.80;;
8478;SDS011;4276;49.354;6.804;2024-01-16T14:06:47;6.30;;;5.80;;
8478;SDS011;4276;49.354;6.804;2024-01-16T14:09:34;5.40;;;4.93;;
8478;SDS011;4276;49.354;6.804;2024-01-16T14:12:01;5.72;;;5.22;;
8478;SDS011;4276;49.354;6.804;2024-01-16T14:14:28;5.97;;;5.30;;
8478;SDS011;4276;49.354;6.804;2024-01-16T14:16:55;6.55;;;5.50;;
8478;SDS011;4276;49.354;6.804;2024-01-16T14:19:27;7.80;;;5.57;;
8478;SDS011;4276;49.354;6.804;2024-01-16T14:21:56;7.18;;;6.47;;
8478;SDS011;4276;49.354;6.804;2024-01-16T14:24:23;7.30;;;5.70;;
8478;SDS011;4276;49.354;6.804;2024-01-16T14:26:49;9.45;;;6.25;;
8478;SDS011;4276;49.354;6.804;2024-01-16T14:29:16;6.38;;;5.78;;
8478;SDS011;4276;49.354;6.804;2024-01-16T14:31:43;6.25;;;5.60;;
8478;SDS011;4276;49.354;6.804;2024-01-16T14:34:10;6.15;;;5.55;;
8478;SDS011;4276;49.354;6.804;2024-01-16T14:36:40;7.17;;;6.23;;
8478;SDS011;4276;49.354;6.804;2024-01-16T14:39:07;8.40;;;5.60;;
8478;SDS011;4276;49.354;6.804;2024-01-16T14:41:39;5.88;;;5.20;;
8478;SDS011;4276;49.354;6.804;2024-01-16T14:44:08;6.67;;;5.30;;
8478;SDS011;4276;49.354;6.804;2024-01-16T14:46:36;6.83;;;6.03;;
8478;SDS011;4276;49.354;6.804;2024-01-16T14:49:02;7.85;;;6.40;;
8478;SDS011;4276;49.354;6.804;2024-01-16T14:51:29;7.10;;;6.23;;
8478;SDS011;4276;49.354;6.804;2024-01-16T14:53:56;7.20;;;6.27;;
8478;SDS011;4276;49.354;6.804;2024-01-16T14:56:23;7.85;;;6.40;;
8478;SDS011;4276;49.354;6.804;2024-01-16T14:58:50;8.85;;;5.82;;
8478;SDS011;4276;49.354;6.804;2024-01-16T15:01:17;6.90;;;5.73;;
8478;SDS011;4276;49.354;6.804;2024-01-16T15:03:44;7.20;;;6.07;;
8478;SDS011;4276;49.354;6.804;2024-01-16T15:06:11;7.30;;;6.40;;
8478;SDS011;4276;49.354;6.804;2024-01-16T15:08:39;7.20;;;6.47;;
8478;SDS011;4276;49.354;6.804;2024-01-16T15:11:06;8.80;;;7.13;;
8478;SDS011;4276;49.354;6.804;2024-01-16T15:13:33;8.57;;;7.40;;
8478;SDS011;4276;49.354;6.804;2024-01-16T15:16:00;11.43;;;8.88;;
8478;SDS011;4276;49.354;6.804;2024-01-16T15:18:27;10.87;;;8.43;;
8478;SDS011;4276;49.354;6.804;2024-01-16T15:20:54;9.68;;;8.00;;
8478;SDS011;4276;49.354;6.804;2024-01-16T15:23:22;13.43;;;8.85;;
8478;SDS011;4276;49.354;6.804;2024-01-16T15:25:49;9.10;;;7.70;;
8478;SDS011;4276;49.354;6.804;2024-01-16T15:28:16;8.40;;;7.15;;
8478;SDS011;4276;49.354;6.804;2024-01-16T15:30:44;12.55;;;8.27;;
8478;SDS011;4276;49.354;6.804;2024-01-16T15:33:12;9.13;;;7.40;;